Time;durP1;ratioP1;P1;durP2;ratioP2;P2;SDS_P1;SDS_P2;PMS_P1;PMS_P2;Temp;Humidity;BMP_temperature;BMP_pressure;BME280_temperature;BME280_humidity;BME280_pressure;Samples;Min_cycle;Max_cycle;Signal;HPM_P1;HPM_P2
2023/04/24 00:01:39;;;;;;;5.63;3.63;;;;;;;;;;4881656;29;20056;-88
2023/04/24 00:04:06;;;;;;;4.30;3.90;;;;;;;;;;4867494;29;20045;-88
2023/04/24 00:06:33;;;;;;;4.57;3.63;;;;;;;;;;4883891;29;20073;-87
2023/04/24 00:09:06;;;;;;;5.43;4.07;;;;;;;;;;4891685;23;20046;-87
2023/04/24 00:11:34;;;;;;;5.45;4.30;;;;;;;;;;4900131;23;20068;-87
2023/04/24 00:14:00;;;;;;;7.22;4.85;;;;;;;;;;4877334;29;20064;-88
2023/04/24 00:16:26;;;;;;;4.93;4.43;;;;;;;;;;4893800;29;20045;-87
2023/04/24 00:18:52;;;;;;;7.72;4.65;;;;;;;;;;4893696;29;20057;-88
2023/04/24 00:21:19;;;;;;;5.03;4.15;;;;;;;;;;4896333;29;20108;-88
2023/04/24 00:23:45;;;;;;;7.00;4.50;;;;;;;;;;4881112;29;20060;-87
2023/04/24 00:26:11;;;;;;;5.75;4.35;;;;;;;;;;4881291;29;20057;-87
2023/04/24 00:28:37;;;;;;;5.75;5.15;;;;;;;;;;4882204;29;20078;-87
2023/04/24 00:31:21;;;;;;;6.72;4.43;;;;;;;;;;4876536;23;20062;-87
2023/04/24 00:33:47;;;;;;;7.13;5.15;;;;;;;;;;4863395;29;20049;-89
2023/04/24 00:36:13;;;;;;;9.38;4.25;;;;;;;;;;4860534;29;20456;-87
2023/04/24 00:41:12;;;;;;;7.22;4.57;;;;;;;;;;4905657;23;20061;-84
2023/04/24 00:43:44;;;;;;;4.63;4.10;;;;;;;;;;4890487;23;20091;-87
2023/04/24 00:46:11;;;;;;;4.93;4.43;;;;;;;;;;4883005;29;20097;-87
2023/04/24 00:48:38;;;;;;;4.68;3.13;;;;;;;;;;4882955;29;20049;-88
2023/04/24 00:51:04;;;;;;;5.68;2.92;;;;;;;;;;4883862;29;20069;-88
2023/04/24 00:53:30;;;;;;;2.33;2.00;;;;;;;;;;4882852;29;20112;-88
2023/04/24 00:55:56;;;;;;;1.90;1.67;;;;;;;;;;4880027;23;20037;-86
2023/04/24 00:58:23;;;;;;;4.00;1.70;;;;;;;;;;4863582;29;20060;-87
2023/04/24 01:00:52;;;;;;;2.08;1.90;;;;;;;;;;4879207;29;20046;-88
2023/04/24 01:03:20;;;;;;;4.03;2.35;;;;;;;;;;4866270;29;20041;-88
2023/04/24 01:05:57;;;;;;;2.95;2.47;;;;;;;;;;4873557;23;20062;-88
2023/04/24 01:08:27;;;;;;;2.67;2.17;;;;;;;;;;4876678;29;20053;-87
2023/04/24 01:10:53;;;;;;;2.75;2.45;;;;;;;;;;4860145;29;20062;-87
2023/04/24 01:13:20;;;;;;;2.50;2.30;;;;;;;;;;4845822;29;20061;-87
2023/04/24 01:15:47;;;;;;;2.47;2.28;;;;;;;;;;4844175;29;20084;-88
2023/04/24 01:18:21;;;;;;;2.50;2.30;;;;;;;;;;4944739;23;20085;-86
2023/04/24 01:20:50;;;;;;;2.78;2.58;;;11.00;99.90;;;;;;4891315;29;20057;-87
2023/04/24 01:23:17;;;;;;;2.15;1.95;;;;;;;;;;4891543;29;20078;-87
2023/04/24 01:25:43;;;;;;;2.80;2.58;;;;;;;;;;4876984;29;20057;-87
2023/04/24 01:28:09;;;;;;;3.13;2.30;;;;;;;;;;4874766;29;20049;-87
2023/04/24 01:30:36;;;;;;;2.42;2.22;;;;;;;;;;4882505;23;20057;-86
2023/04/24 01:33:16;;;;;;;2.30;2.03;;;;;;;;;;4911311;23;20069;-87
2023/04/24 01:35:42;;;;;;;2.15;1.95;;;;;;;;;;4896048;29;20085;-88
2023/04/24 01:38:08;;;;;;;2.10;1.90;;;;;;;;;;4879480;29;20068;-86
2023/04/24 01:40:35;;;;;;;2.10;1.90;;;;;;;;;;4896803;29;20045;-87
2023/04/24 01:43:01;;;;;;;2.00;1.90;;;;;;;;;;4896763;29;20533;-88
2023/04/24 01:45:27;;;;;;;3.40;1.85;;;;;;;;;;4893867;29;20036;-87
2023/04/24 01:47:53;;;;;;;2.28;2.00;;;;;;;;;;4891765;23;20069;-88
2023/04/24 01:50:20;;;;;;;2.03;1.83;;;;;;;;;;4889256;23;20037;-87
2023/04/24 01:52:46;;;;;;;1.98;1.88;;;;;;;;;;4901578;29;20049;-87
2023/04/24 01:55:13;;;;;;;2.00;1.90;;;;;;;;;;4870556;29;20053;-88
2023/04/24 02:00:15;;;;;;;2.30;2.10;;;;;;;;;;4077208;27;20053;-87
2023/04/24 02:02:41;;;;;;;1.80;1.70;;;;;;;;;;4887042;29;20044;-87
2023/04/24 02:05:43;;;;;;;1.90;1.80;;;;;;;;;;4925714;23;20061;-86
2023/04/24 02:08:09;;;;;;;2.22;2.03;;;;;;;;;;4824975;29;20042;-87
2023/04/24 02:10:35;;;;;;;2.42;1.85;;;;;;;;;;4853913;29;20060;-87
2023/04/24 02:13:07;;;;;;;2.35;2.15;;;;;;;;;;4875008;23;20120;-86
2023/04/24 02:15:33;;;;;;;2.53;2.33;;;;;;;;;;4884148;29;20100;-86
2023/04/24 02:18:00;;;;;;;2.50;2.30;;;;;;;;;;4905110;29;20056;-87
2023/04/24 02:20:26;;;;;;;2.92;2.35;;;;;;;;;;4890319;29;20044;-87
2023/04/24 02:23:10;;;;;;;2.92;2.72;;;10.50;99.90;;;;;;4960807;23;20125;-87
2023/04/24 02:25:36;;;;;;;3.70;2.10;;;;;;;;;;4892564;29;20113;-87
2023/04/24 02:28:03;;;;;;;2.72;2.53;;;;;;;;;;4883206;29;20041;-88
2023/04/24 02:30:54;;;;;;;3.03;2.72;;;;;;;;;;4887857;23;20064;-87
2023/04/24 02:33:26;;;;;;;2.80;2.60;;;;;;;;;;4876372;23;20057;-87
2023/04/24 02:35:53;;;;;;;3.10;2.83;;;;;;;;;;4886001;29;20053;-86
2023/04/24 02:38:19;;;;;;;3.25;3.00;;;;;;;;;;4886029;29;20045;-87
2023/04/24 02:40:46;;;;;;;8.98;3.17;;;;;;;;;;4937652;23;20122;-86
2023/04/24 02:43:12;;;;;;;3.40;3.10;;;;;;;;;;4886391;29;20081;-88
2023/04/24 02:48:11;;;;;;;6.88;4.05;;;;;;;;;;4920100;29;20056;-87
2023/04/24 02:50:37;;;;;;;4.60;4.07;;;;;;;;;;4890143;29;20076;-88
2023/04/24 02:53:03;;;;;;;4.22;3.83;;;;;;;;;;4888344;29;20105;-88
2023/04/24 02:55:30;;;;;;;3.80;3.42;;;;;;;;;;4901539;29;20101;-88
2023/04/24 02:57:56;;;;;;;5.25;4.28;;;;;;;;;;4900629;23;20072;-87
2023/04/24 03:00:22;;;;;;;4.45;3.90;;;;;;;;;;4880225;29;20045;-87
2023/04/24 03:02:49;;;;;;;5.50;4.15;;;;;;;;;;4889829;23;20061;-87
2023/04/24 03:05:16;;;;;;;4.50;4.07;;;;;;;;;;4860571;29;20304;-87
2023/04/24 03:07:42;;;;;;;5.32;4.55;;;;;;;;;;4861186;29;20045;-87
2023/04/24 03:10:08;;;;;;;5.80;4.85;;;;;;;;;;4871355;23;20057;-87
2023/04/24 03:12:34;;;;;;;5.78;5.18;;;;;;;;;;4880070;29;20061;-87
2023/04/24 03:15:00;;;;;;;5.47;4.80;;;;;;;;;;4879225;29;20049;-87
2023/04/24 03:17:27;;;;;;;7.53;5.45;;;;;;;;;;4878992;29;20059;-87
2023/04/24 03:19:53;;;;;;;5.45;4.78;;;;;;;;;;4893523;29;20064;-87
2023/04/24 03:22:19;;;;;;;8.73;5.35;;;;;;;;;;4866957;29;20045;-92
2023/04/24 03:24:45;;;;;;;6.78;5.88;;;;;;;;;;4869949;29;20049;-88
2023/04/24 03:27:11;;;;;;;6.88;5.95;;;;;;;;;;4876762;29;20049;-91
2023/04/24 03:29:38;;;;;;;7.53;5.53;;;;;;;;;;4876916;29;20101;-87
2023/04/24 03:32:06;;;;;;;7.72;6.22;;;;;;;;;;4895915;29;20081;-87
2023/04/24 03:34:34;;;;;;;6.82;5.63;;;;;;;;;;4895369;29;20053;-86
2023/04/24 03:37:00;;;;;;;7.32;6.22;;;;;;;;;;4881611;29;20072;-88
2023/04/24 03:42:01;;;;;;;8.30;7.07;;;;;;;;;;4912193;29;20057;-87
2023/04/24 03:44:35;;;;;;;7.45;6.75;;;;;;;;;;4937313;23;20068;31
2023/04/24 03:47:01;;;;;;;9.18;6.50;;;;;;;;;;4880530;29;20122;-88
2023/04/24 03:49:30;;;;;;;7.72;6.40;;;;;;;;;;4897540;29;20048;-86
2023/04/24 03:51:56;;;;;;;9.77;7.07;;;;;;;;;;4876101;29;20139;-95
2023/04/24 03:54:22;;;;;;;9.10;7.53;;;;;;;;;;4878414;29;20045;-88
2023/04/24 03:56:48;;;;;;;8.85;7.07;;;;;;;;;;4882203;29;20648;-87
2023/04/24 03:59:14;;;;;;;8.00;6.55;;;;;;;;;;4886735;23;20053;-87
2023/04/24 04:01:41;;;;;;;8.80;7.38;;;;;;;;;;4873827;29;20057;-87
2023/04/24 04:04:07;;;;;;;9.20;7.65;;;;;;;;;;4859899;29;20045;-91
2023/04/24 04:06:34;;;;;;;10.27;8.35;;;;;;;;;;4863131;29;20042;-92
2023/04/24 04:09:00;;;;;;;11.02;8.25;;;;;;;;;;4871611;29;20061;-92
2023/04/24 04:11:27;;;;;;;10.07;7.95;;;;;;;;;;4875520;29;20080;-88
2023/04/24 04:14:19;;;;;;;11.38;8.30;;;;;;;;;;4895068;23;20112;-88
2023/04/24 04:16:45;;;;;;;9.55;7.68;;;;;;;;;;4879458;29;20068;-90
2023/04/24 04:21:45;;;;;;;;;;;10.50;99.90;;;;;;4895057;29;20532;-87
2023/04/24 04:24:20;;;;;;;10.40;5.28;;;;;;;;;;4873535;23;19923;-87
2023/04/24 04:26:47;;;;;;;4.80;4.18;;;10.50;99.90;;;;;;4873132;23;20060;-87
2023/04/24 04:29:15;;;;;;;3.83;3.45;;;;;;;;;;4875569;29;20136;-87
2023/04/24 04:31:41;;;;;;;3.25;2.83;;;;;;;;;;4876214;29;20053;-87
2023/04/24 04:34:07;;;;;;;5.35;2.28;;;;;;;;;;4885427;23;20117;-87
2023/04/24 04:36:36;;;;;;;2.72;2.22;;;;;;;;;;4880069;29;20109;-87
2023/04/24 04:39:03;;;;;;;2.58;2.03;;;;;;;;;;4895102;29;20045;-87
2023/04/24 04:41:35;;;;;;;2.47;1.90;;;;;;;;;;4898163;29;20068;-87
2023/04/24 04:44:12;;;;;;;2.35;1.98;;;;;;;;;;4906792;23;20072;-86
2023/04/24 04:46:38;;;;;;;1.90;1.80;;;;;;;;;;4883698;29;20041;-87
2023/04/24 04:49:05;;;;;;;3.65;1.50;;;;;;;;;;4876148;29;20049;-86
2023/04/24 04:51:34;;;;;;;1.50;1.40;;;;;;;;;;4892694;29;20069;-86
2023/04/24 04:54:00;;;;;;;2.00;1.77;;;;;;;;;;4890966;29;20057;-87
2023/04/24 04:56:29;;;;;;;1.90;1.70;;;;;;;;;;4890494;29;20081;-86
2023/04/24 04:58:57;;;;;;;1.52;1.42;;;;;;;;;;4892192;29;20067;-86
2023/04/24 05:01:29;;;;;;;1.40;1.30;;;;;;;;;;4891175;29;20040;-87
2023/04/24 05:04:03;;;;;;;2.97;1.40;;;;;;;;;;4890475;29;20402;-86
2023/04/24 05:06:40;;;;;;;2.40;1.25;;;;;;;;;;4875167;29;20081;-86
2023/04/24 05:09:16;;;;;;;1.50;1.30;;;;;;;;;;4875654;29;20049;-86
2023/04/24 05:11:50;;;;;;;1.40;1.30;;;;;;;;;;4912918;23;20061;-86
2023/04/24 05:14:24;;;;;;;2.28;2.05;;;;;;;;;;4870568;29;20061;-86
2023/04/24 05:16:51;;;;;;;2.83;2.53;;;;;;;;;;4869803;29;20063;-86
2023/04/24 05:19:17;;;;;;;2.33;2.00;;;;;;;;;;4868798;29;20133;-88
2023/04/24 05:21:43;;;;;;;2.55;2.17;;;;;;;;;;4869635;29;20418;-88
2023/04/24 05:24:09;;;;;;;2.45;2.03;;;;;;;;;;4884553;29;20534;-88
2023/04/24 05:26:35;;;;;;;3.03;2.15;;;;;;;;;;4871300;29;20137;-89
2023/04/24 05:29:02;;;;;;;2.20;1.95;;;;;;;;;;4869820;29;20534;-91
2023/04/24 05:31:28;;;;;;;2.15;1.90;;;;;;;;;;4882476;29;20046;-88
2023/04/24 05:33:54;;;;;;;2.63;2.00;;;;;;;;;;4880469;29;20056;-88
2023/04/24 05:36:20;;;;;;;2.97;2.60;;;;;;;;;;4865608;29;20061;-90
2023/04/24 05:38:46;;;;;;;3.03;2.53;;;;;;;;;;4865419;29;20056;-90
2023/04/24 05:41:12;;;;;;;2.90;2.58;;;;;;;;;;4867132;29;20057;-92
2023/04/24 05:43:39;;;;;;;5.63;2.92;;;;;;;;;;4881952;29;20048;-89
2023/04/24 05:46:05;;;;;;;4.15;2.65;;;;;;;;;;4867963;29;20045;-88
2023/04/24 05:48:31;;;;;;;3.08;2.72;;;;;;;;;;4882599;29;20089;-90
2023/04/24 05:50:57;;;;;;;3.55;3.00;;;;;;;;;;4866325;29;20062;-87
2023/04/24 05:53:23;;;;;;;5.78;3.00;;;;;;;;;;4880074;29;20057;-91
2023/04/24 05:55:50;;;;;;;4.15;3.67;;;;;;;;;;4864882;29;20109;-93
2023/04/24 05:58:16;;;;;;;4.28;2.97;;;;;;;;;;4862495;29;20052;-89
2023/04/24 06:00:43;;;;;;;3.78;3.10;;;;;;;;;;4863923;29;20062;-91
2023/04/24 06:03:09;;;;;;;2.45;2.25;;;;;;;;;;4862767;29;20053;-95
2023/04/24 06:05:35;;;;;;;3.42;2.80;;;;;;;;;;4863710;29;20118;-92
2023/04/24 06:08:01;;;;;;;4.95;2.95;;;;;;;;;;4864154;29;20098;-92
2023/04/24 06:10:28;;;;;;;4.57;3.22;;;;;;;;;;4862571;29;20045;-93
2023/04/24 06:12:56;;;;;;;4.95;3.25;;;;;;;;;;4864686;29;20060;-87
2023/04/24 06:15:22;;;;;;;4.07;3.38;;;;;;;;;;4863294;29;20048;-86
2023/04/24 06:17:48;;;;;;;4.47;2.95;;;;;;;;;;4878832;29;20072;-87
2023/04/24 06:20:14;;;;;;;4.15;3.00;;;;;;;;;;4879356;29;20041;-88
2023/04/24 06:22:40;;;;;;;5.95;3.20;;;;;;;;;;4863285;29;20052;-87
2023/04/24 06:25:07;;;;;;;3.80;3.17;;;;;;;;;;4880364;29;20097;-87
2023/04/24 06:27:33;;;;;;;4.75;3.10;;;;;;;;;;4848884;29;20075;-87
2023/04/24 06:30:00;;;;;;;5.90;3.13;;;;;;;;;;4881016;29;20411;-88
2023/04/24 06:32:27;;;;;;;3.85;2.22;;;;;;;;;;4848580;29;20049;-87
2023/04/24 06:34:53;;;;;;;3.58;1.90;;;;;;;;;;4880607;29;20414;-87
2023/04/24 06:37:20;;;;;;;3.88;2.28;;;;;;;;;;4863709;29;20059;-87
2023/04/24 06:39:46;;;;;;;2.03;1.73;;;;;;;;;;4879746;29;20072;-89
2023/04/24 06:42:12;;;;;;;4.38;1.80;;;;;;;;;;4863294;29;20132;-87
2023/04/24 06:44:40;;;;;;;1.85;1.70;;;;;;;;;;4880114;29;20137;-87
2023/04/24 06:47:08;;;;;;;5.68;2.47;;;;;;;;;;4863275;29;20526;-88
2023/04/24 06:49:35;;;;;;;2.80;2.15;;;;;;;;;;4878850;29;20053;-87
2023/04/24 06:52:01;;;;;;;7.65;1.92;;;;;;;;;;4863189;29;20056;-87
2023/04/24 06:54:27;;;;;;;4.13;2.58;;;;;;;;;;4863351;29;20413;-87
2023/04/24 06:56:53;;;;;;;2.60;2.00;;;;;;;;;;4847214;29;20136;-88
2023/04/24 06:59:19;;;;;;;7.38;2.13;;;;;;;;;;4879658;29;20037;-87
2023/04/24 07:01:45;;;;;;;5.20;2.33;;;;;;;;;;4862905;29;20049;-87
2023/04/24 07:04:12;;;;;;;3.20;1.95;;;;;;;;;;4878476;29;20051;-87
2023/04/24 07:06:39;;;;;;;2.53;2.00;;;;;;;;;;4863242;29;20206;-87
2023/04/24 07:09:05;;;;;;;4.47;2.50;;;;;;;;;;4879354;29;20084;-87
2023/04/24 07:11:32;;;;;;;4.10;2.10;;;;;;;;;;4877754;29;20136;-87
2023/04/24 07:13:58;;;;;;;2.60;1.85;;;;;;;;;;4862617;29;20061;-87
2023/04/24 07:16:25;;;;;;;3.35;1.63;;;;;;;;;;4863135;29;20088;-87
2023/04/24 07:18:51;;;;;;;3.63;1.63;;;;;;;;;;4862877;29;20045;-87
2023/04/24 07:21:17;;;;;;;4.45;2.35;;;;;;;;;;4863429;29;20049;-87
2023/04/24 07:23:43;;;;;;;2.58;1.90;;;;;;;;;;4863518;29;20080;-87
2023/04/24 07:26:10;;;;;;;3.78;1.70;;;;;;;;;;4879696;29;20045;-87
2023/04/24 07:28:36;;;;;;;10.23;2.83;;;;;;;;;;4878737;29;20065;-87
2023/04/24 07:31:02;;;;;;;5.32;4.03;;;;;;;;;;4879404;29;20401;-87
2023/04/24 07:33:28;;;;;;;10.57;5.32;;;;;;;;;;4863097;29;20081;-87
2023/04/24 07:35:54;;;;;;;12.80;4.80;;;;;;;;;;4879392;29;20041;-88
2023/04/24 07:38:21;;;;;;;10.02;6.10;;;;;;;;;;4879039;29;20067;-87
2023/04/24 07:40:48;;;;;;;12.80;7.20;;;;;;;;;;4882511;29;20421;-88
2023/04/24 07:43:14;;;;;;;10.52;6.93;;;;;;;;;;4881454;29;20041;-87
2023/04/24 07:45:41;;;;;;;13.50;8.05;;;;;;;;;;4882501;29;20463;-88
2023/04/24 07:48:08;;;;;;;15.75;8.27;;;;;;;;;;4882108;29;20490;-88
2023/04/24 07:50:36;;;;;;;18.00;8.90;;;;;;;;;;4866079;29;20085;-88
2023/04/24 07:53:02;;;;;;;16.92;10.30;;;;;;;;;;4865709;29;20553;-88
2023/04/24 07:55:28;;;;;;;21.08;10.20;;;;;;;;;;4865819;29;20041;-88
2023/04/24 07:57:54;;;;;;;22.73;11.25;;;;;;;;;;4883005;29;20057;-87
2023/04/24 08:00:20;;;;;;;26.83;11.45;;;;;;;;;;4882546;29;20060;-88
2023/04/24 08:02:46;;;;;;;25.13;13.57;;;;;;;;;;4882797;29;20041;-88
2023/04/24 08:05:13;;;;;;;17.98;9.15;;;;;;;;;;4865726;29;20049;-88
2023/04/24 08:07:39;;;;;;;27.17;11.05;;;;;;;;;;4881387;29;20236;-88
2023/04/24 08:10:05;;;;;;;15.07;9.45;;;;;;;;;;4882781;29;20057;-88
2023/04/24 08:12:33;;;;;;;13.15;9.63;;;;;;;;;;4886046;23;20053;-87
2023/04/24 08:15:00;;;;;;;16.88;10.13;;;;;;;;;;4866445;29;20049;-87
2023/04/24 08:17:35;;;;;;;17.50;9.07;;;;;;;;;;4866042;29;20459;-87
2023/04/24 08:20:13;;;;;;;16.85;9.65;;;;;;;;;;4865978;29;20502;-89
2023/04/24 08:22:40;;;;;;;22.60;10.05;;;;;;;;;;4881555;29;20554;-87
2023/04/24 08:25:15;;;;;;;17.98;8.32;;;;;;;;;;4882468;29;20045;-88
2023/04/24 08:27:48;;;;;;;18.38;9.25;;;;;;;;;;4866054;29;20398;-87
2023/04/24 08:30:14;;;;;;;12.38;7.70;;;;;;;;;;4896817;29;20048;-87
2023/04/24 08:32:41;;;;;;;17.85;8.60;;;;;;;;;;4879224;29;20080;-87
2023/04/24 08:35:14;;;;;;;19.73;9.15;;;;;;;;;;4895736;29;20068;-87
2023/04/24 08:37:41;;;;;;;16.20;9.18;;;;;;;;;;4877255;29;20065;-87
2023/04/24 08:40:30;;;;;;;19.10;8.95;;;9.10;99.90;;;;;;4876742;29;20060;-88
2023/04/24 08:43:04;;;;;;;13.75;9.20;;;;;;;;;;4894864;29;20078;-87
2023/04/24 08:45:31;;;;;;;14.30;7.82;;;;;;;;;;4877914;29;20096;-87
2023/04/24 08:48:04;;;;;;;11.18;7.97;;;;;;;;;;4893851;29;20052;-86
2023/04/24 08:50:30;;;;;;;13.77;8.60;;;;;;;;;;4891783;29;20051;-87
2023/04/24 08:52:56;;;;;;;11.10;7.28;;;;;;;;;;4878433;29;20053;-88
2023/04/24 08:55:24;;;;;;;14.18;7.97;;;;;;;;;;4894660;29;20056;-87
2023/04/24 08:57:52;;;;;;;10.25;5.93;;;;;;;;;;4892315;29;20052;-86
2023/04/24 09:00:19;;;;;;;9.88;5.38;;;;;;;;;;4892449;29;20163;-87
2023/04/24 09:02:46;;;;;;;9.73;6.35;;;;;;;;;;4876353;29;20272;-89
2023/04/24 09:05:13;;;;;;;8.68;5.82;;;;;;;;;;4877861;29;20053;-87
2023/04/24 09:07:42;;;;;;;15.20;6.88;;;;;;;;;;4886798;29;20512;-88
2023/04/24 09:10:12;;;;;;;12.50;6.15;;;;;;;;;;4911219;23;20786;-89
2023/04/24 09:12:38;;;;;;;11.55;5.97;;;;;;;;;;4862002;29;20049;-88
2023/04/24 09:15:08;;;;;;;10.50;6.90;;;;;;;;;;4894730;29;20490;-88
2023/04/24 09:17:40;;;;;;;12.02;6.53;;;;;;;;;;4878561;29;20108;-88
2023/04/24 09:20:07;;;;;;;7.47;6.13;;;;;;;;;;4893033;29;20061;-88
2023/04/24 09:22:42;;;;;;;6.55;5.70;;;;;;;;;;4893203;29;20040;-87
2023/04/24 09:25:12;;;;;;;11.45;6.30;;;;;;;;;;4877388;29;20095;-88
2023/04/24 09:27:43;;;;;;;12.13;5.80;;;;;;;;;;4911950;29;20040;-87
2023/04/24 09:30:29;;;;;;;8.43;5.47;;;;;;;;;;4908880;29;20044;-86
2023/04/24 09:33:20;;;;;;;8.05;5.20;;;;;;;;;;4911580;29;20501;-87
2023/04/24 09:36:17;;;;;;;11.43;5.15;;;9.30;99.90;;;;;;4912488;29;20049;-87
2023/04/24 09:38:46;;;;;;;18.17;5.38;;;;;;;;;;4910417;29;20056;-89
2023/04/24 09:41:14;;;;;;;10.27;4.55;;;;;;;;;;4894248;29;20048;-89
2023/04/24 09:44:17;;;;;;;4.88;4.22;;;;;;;;;;4890705;23;20117;-87
2023/04/24 09:46:46;;;;;;;14.85;4.75;;;;;;;;;;4849792;29;20050;-87
2023/04/24 09:49:24;;;;;;;12.20;5.70;;;;;;;;;;4867681;23;20121;-87
2023/04/24 09:51:50;;;;;;;4.70;3.15;;;;;;;;;;4899219;23;20041;-86
2023/04/24 09:54:24;;;;;;;11.15;4.75;;;;;;;;;;4862484;23;20068;-86
2023/04/24 09:56:51;;;;;;;8.02;3.25;;;;;;;;;;4861982;29;20049;-87
2023/04/24 09:59:19;;;;;;;4.65;2.75;;;;;;;;;;4894090;29;20046;-87
2023/04/24 10:01:50;;;;;;;9.65;3.92;;;;;;;;;;4901542;23;20125;-87
2023/04/24 10:04:24;;;;;;;7.97;3.40;;;;;;;;;;4896583;23;20557;-87
2023/04/24 10:06:56;;;;;;;11.45;3.90;;;;;;;;;;4936729;23;20053;-86
2023/04/24 10:09:24;;;;;;;5.78;3.42;;;;;;;;;;4844007;29;20094;-87
2023/04/24 10:12:08;;;;;;;9.82;2.60;;;;;;;;;;4874672;29;20137;-87
2023/04/24 10:14:35;;;;;;;13.30;3.72;;;;;;;;;;4873364;29;20068;-87
2023/04/24 10:17:04;;;;;;;7.97;3.17;;;;;;;;;;4873297;29;20041;-87
2023/04/24 10:19:32;;;;;;;6.70;2.92;;;;;;;;;;4874624;29;20060;-87
2023/04/24 10:21:59;;;;;;;8.07;3.20;;;;;;;;;;4890566;23;20064;-86
2023/04/24 10:24:27;;;;;;;8.82;3.20;;;;;;;;;;4873792;29;20064;-87
2023/04/24 10:27:05;;;;;;;5.78;3.22;;;;;;;;;;4888745;29;20841;-86
2023/04/24 10:29:31;;;;;;;5.50;3.00;;;;;;;;;;4876611;29;20056;-87
2023/04/24 10:31:58;;;;;;;3.95;3.05;;;;;;;;;;4878655;23;20046;-86
2023/04/24 10:34:25;;;;;;;3.85;2.13;;;;;;;;;;4854860;29;20087;-88
2023/04/24 10:36:56;;;;;;;9.45;3.00;;;;;;;;;;4854299;29;20078;-87
2023/04/24 10:39:22;;;;;;;7.60;2.90;;;;;;;;;;4853956;29;20081;-87
2023/04/24 10:41:51;;;;;;;7.32;2.53;;;;;;;;;;4868633;29;20107;-87
2023/04/24 10:44:22;;;;;;;6.43;3.60;;;;;;;;;;4854837;29;20065;-87
2023/04/24 10:46:54;;;;;;;10.63;3.13;;;;;;;;;;4854400;29;20054;-87
2023/04/24 10:49:28;;;;;;;5.75;2.00;;;;;;;;;;4853713;29;20053;-87
2023/04/24 10:51:55;;;;;;;5.18;2.30;;;;;;;;;;4867303;29;20421;-87
2023/04/24 10:54:45;;;;;;;9.93;2.75;;;;;;;;;;4854082;29;20117;-87
2023/04/24 10:57:24;;;;;;;5.45;2.67;;;;;;;;;;4868069;29;20084;-87
2023/04/24 10:59:53;;;;;;;3.05;2.08;;;;;;;;;;4855370;29;20038;-87
2023/04/24 11:02:35;;;;;;;7.00;2.50;;;;;;;;;;4855392;29;20073;-87
2023/04/24 11:05:07;;;;;;;4.50;1.95;;;;;;;;;;4878115;23;20061;-87
2023/04/24 11:07:52;;;;;;;7.95;2.00;;;;;;;;;;4871062;29;20078;-87
2023/04/24 11:10:28;;;;;;;3.10;1.75;;;;;;;;;;4886607;29;20109;-87
2023/04/24 11:12:54;;;;;;;5.10;2.03;;;;;;;;;;4872019;29;20057;-88
2023/04/24 11:15:21;;;;;;;6.72;2.40;;;;;;;;;;4875547;29;20049;-87
2023/04/24 11:17:54;;;;;;;5.07;1.80;;;;;;;;;;4860282;29;20057;-87
2023/04/24 11:20:36;;;;;;;9.18;2.65;;;;;;;;;;4877205;29;20053;-87
2023/04/24 11:23:06;;;;;;;5.85;2.53;;;;;;;;;;4861360;29;20054;-87
2023/04/24 11:25:33;;;;;;;4.15;2.05;;;;;;;;;;4877505;29;20053;-87
2023/04/24 11:28:04;;;;;;;9.35;2.35;;;;;;;;;;4879144;29;20048;-87
2023/04/24 11:33:06;;;;;;;4.70;2.20;;;;;;;;;;4891823;29;20059;-88
2023/04/24 11:35:38;;;;;;;4.63;1.98;;;;;;;;;;4874325;29;20045;-87
2023/04/24 11:38:14;;;;;;;7.30;2.47;;;;;;;;;;4876055;29;20048;-87
2023/04/24 11:40:41;;;;;;;6.28;1.67;;;;;;;;;;4878405;29;20055;-87
2023/04/24 11:43:07;;;;;;;7.55;2.00;;;;;;;;;;4896765;23;20065;-87
2023/04/24 11:45:34;;;;;;;3.40;1.70;;;;;;;;;;4877363;29;20074;-87
2023/04/24 11:48:03;;;;;;;4.15;2.00;;;;;;;;;;4889680;29;20041;-87
2023/04/24 11:50:33;;;;;;;4.07;2.38;;;;;;;;;;4889185;29;20140;-86
2023/04/24 11:53:00;;;;;;;9.43;2.53;;;;;;;;;;4873612;29;20544;-87
2023/04/24 11:55:40;;;;;;;10.82;2.17;;;;;;;;;;4873794;29;20187;-88
2023/04/24 11:58:07;;;;;;;3.40;1.95;;;;;;;;;;4887862;29;20053;-86
2023/04/24 12:00:34;;;;;;;4.55;1.77;;;;;;;;;;4888542;29;20041;-87
2023/04/24 12:03:07;;;;;;;2.50;1.73;;;;;;;;;;4873002;29;20056;-87
2023/04/24 12:05:37;;;;;;;2.45;1.52;;;;;;;;;;4888472;29;20053;-87
2023/04/24 12:08:07;;;;;;;3.40;1.80;;;;;;;;;;4871369;29;20051;-87
2023/04/24 12:10:40;;;;;;;9.63;1.92;;;;;;;;;;4885564;29;20049;-87
2023/04/24 12:13:06;;;;;;;1.40;1.27;;;;;;;;;;4870292;29;20052;-87
2023/04/24 12:15:32;;;;;;;4.25;1.42;;;;;;;;;;4872688;29;20132;-90
2023/04/24 12:17:59;;;;;;;3.03;0.98;;;;;;;;;;4890450;29;20052;-93
2023/04/24 12:20:30;;;;;;;6.38;1.27;;;;;;;;;;4890379;29;20066;-92
2023/04/24 12:22:59;;;;;;;2.70;1.23;;;;;;;;;;4890315;29;20047;-88
2023/04/24 12:25:29;;;;;;;2.35;1.40;;;;;;;;;;4887832;29;20149;-88
2023/04/24 12:28:05;;;;;;;1.40;1.05;;;;;;;;;;4873116;29;20045;-87
2023/04/24 12:30:35;;;;;;;2.65;1.00;;;;;;;;;;4891889;29;20084;-88
2023/04/24 12:33:01;;;;;;;6.90;1.33;;;;;;;;;;4892744;29;20053;-89
2023/04/24 12:35:33;;;;;;;3.05;1.40;;;;;;;;;;4875554;29;20045;-92
2023/04/24 12:38:19;;;;;;;1.50;1.05;;;;;;;;;;4875209;29;20074;-89
2023/04/24 12:40:45;;;;;;;3.28;1.48;;;;;;;;;;4889818;29;20073;-88
2023/04/24 12:43:15;;;;;;;3.95;1.70;;;;;;;;;;4873936;29;20041;-91
2023/04/24 12:45:44;;;;;;;3.90;1.13;;;;;;;;;;4875707;29;20129;-96
2023/04/24 12:48:10;;;;;;;5.68;1.80;;;;;;;;;;4887685;29;20052;-88
2023/04/24 12:50:39;;;;;;;3.20;1.15;;;;;;;;;;4890572;29;20073;-89
2023/04/24 12:53:05;;;;;;;4.05;1.48;;;;;;;;;;4852215;29;20045;-88
2023/04/24 12:55:31;;;;;;;7.63;1.50;;;;;;;;;;4866788;29;20263;-89
2023/04/24 12:57:58;;;;;;;7.35;1.95;;;;;;;;;;4867401;29;20052;-88
2023/04/24 13:00:24;;;;;;;5.63;1.33;;;;;;;;;;4866375;29;20049;-88
2023/04/24 13:02:50;;;;;;;7.20;1.77;;;;;;;;;;4866403;29;20049;-89
2023/04/24 13:05:16;;;;;;;2.05;1.30;;;;;;;;;;4866252;29;20045;-88
2023/04/24 13:07:43;;;;;;;3.80;1.20;;;;;;;;;;4851102;29;20053;-89
2023/04/24 13:10:09;;;;;;;2.63;1.25;;;;;;;;;;4883240;29;20065;-89
2023/04/24 13:12:35;;;;;;;1.75;1.00;;;;;;;;;;4866038;29;20132;-89
2023/04/24 13:15:02;;;;;;;2.22;0.88;;;;;;;;;;4866162;29;20056;-88
2023/04/24 13:17:28;;;;;;;1.60;0.77;;;;;;;;;;4866428;29;20079;-89
2023/04/24 13:19:55;;;;;;;4.85;1.13;;;;;;;;;;4866286;29;20097;-89
2023/04/24 13:22:21;;;;;;;8.27;1.30;;;;;;;;;;4882347;29;20044;-88
2023/04/24 13:24:51;;;;;;;2.63;1.40;;;;;;;;;;4865869;29;20049;-87
2023/04/24 13:27:17;;;;;;;1.23;1.05;;;;;;;;;;4866285;29;20401;-89
2023/04/24 13:29:43;;;;;;;1.20;0.95;;;;;;;;;;4865819;29;20511;-88
2023/04/24 13:32:09;;;;;;;1.90;0.90;;;;;;;;;;4881969;29;20056;-88
2023/04/24 13:34:36;;;;;;;0.85;0.80;;;;;;;;;;4882636;29;20056;-88
2023/04/24 13:37:06;;;;;;;3.50;0.98;;;;;;;;;;4865108;29;20128;-88
2023/04/24 13:39:32;;;;;;;2.05;1.05;;;;;;;;;;4880785;29;20185;-90
2023/04/24 13:41:58;;;;;;;2.70;1.35;;;;;;;;;;4865102;29;20406;-88
2023/04/24 13:44:25;;;;;;;2.47;1.30;;;;;;;;;;4861840;29;20072;-88
2023/04/24 13:46:53;;;;;;;3.03;1.48;;;;;;;;;;4861842;29;20510;-88
2023/04/24 13:49:20;;;;;;;2.33;1.52;;;;;;;;;;4862579;29;20053;-90
2023/04/24 13:51:47;;;;;;;3.45;1.92;;;;;;;;;;4846825;29;20064;-90
2023/04/24 13:54:13;;;;;;;3.88;2.13;;;;;;;;;;4847420;29;20085;-89
2023/04/24 13:56:40;;;;;;;5.15;1.95;;;;;;;;;;4878285;29;20081;-89
2023/04/24 13:59:07;;;;;;;11.88;1.95;;;;;;;;;;4863231;29;20050;-88
2023/04/24 14:01:34;;;;;;;9.25;2.85;;;;;;;;;;4862159;29;20418;-89
2023/04/24 14:04:00;;;;;;;3.40;1.65;;;;;;;;;;4831436;29;20061;-88
2023/04/24 14:06:29;;;;;;;7.43;2.47;;;;;;;;;;4861508;29;20096;-88
2023/04/24 14:08:58;;;;;;;6.70;2.50;;;;;;;;;;4847716;29;20052;-88
2023/04/24 14:11:24;;;;;;;8.90;2.38;;;;;;;;;;4863089;29;20049;-89
2023/04/24 14:13:50;;;;;;;5.38;2.13;;;;;;;;;;4862170;29;20261;-88
2023/04/24 14:16:16;;;;;;;7.10;2.50;;;;;;;;;;4877293;29;20072;-88
2023/04/24 14:18:43;;;;;;;5.95;1.88;;;;;;;;;;4862163;29;20517;-88
2023/04/24 14:21:09;;;;;;;12.18;2.95;;;;;;;;;;4865921;29;20084;-93
2023/04/24 14:23:35;;;;;;;4.25;2.78;;;;;;;;;;4880834;29;20505;-92
2023/04/24 14:26:01;;;;;;;3.10;2.38;;;;;;;;;;4866271;29;20049;-91
2023/04/24 14:28:28;;;;;;;4.60;1.73;;;;;;;;;;4865120;29;20489;-93
2023/04/24 14:30:54;;;;;;;3.90;1.70;;;;;;;;;;4866205;29;20045;-94
2023/04/24 14:33:20;;;;;;;12.13;2.53;;;;;;;;;;4865202;29;20116;-90
2023/04/24 14:35:47;;;;;;;8.10;2.47;;;;;;;;;;4865225;29;20053;-89
2023/04/24 14:38:13;;;;;;;5.03;2.17;;;;;;;;;;4864671;29;20057;-89
2023/04/24 14:40:40;;;;;;;5.57;2.50;;;;;;;;;;4864718;29;20049;-95
2023/04/24 14:43:06;;;;;;;4.18;1.92;;;;;;;;;;4867002;29;20133;-94
2023/04/24 14:45:33;;;;;;;8.90;2.35;;;;;;;;;;4883278;29;20057;-91
2023/04/24 14:47:59;;;;;;;6.50;2.38;;;;;;;;;;4882533;29;20563;-91
2023/04/24 14:50:27;;;;;;;6.70;2.67;;;;;;;;;;4852216;29;20137;-93
2023/04/24 14:52:56;;;;;;;11.70;2.88;;;;;;;;;;4868212;29;20063;-92
2023/04/24 14:55:23;;;;;;;9.57;2.70;;;;;;;;;;4864465;29;20128;-88
2023/04/24 14:57:49;;;;;;;8.80;4.47;;;;;;;;;;4880938;29;20116;-89
2023/04/24 15:00:16;;;;;;;6.95;3.78;;;;;;;;;;4864097;29;20045;-89
2023/04/24 15:02:44;;;;;;;13.50;2.85;;;;;;;;;;4864486;29;20065;-90